Time;durP1;ratioP1;P1;durP2;ratioP2;P2;SDS_P1;SDS_P2;PMS_P1;PMS_P2;Temp;Humidity;BMP_temperature;BMP_pressure;BME280_temperature;BME280_humidity;BME280_pressure;Samples;Min_cycle;Max_cycle;Signal;HPM_P1;HPM_P2
2022/01/15 00:01:33;;;;;;;65.57;33.50;;;2.20;99.90;;;;;;5114703;28;20172;-75
2022/01/15 00:03:59;;;;;;;83.53;36.67;;;2.10;99.90;;;;;;5114950;28;20197;-75
2022/01/15 00:06:25;;;;;;;82.13;39.60;;;2.00;99.90;;;;;;5112287;28;20294;-75
2022/01/15 00:08:51;;;;;;;83.13;40.00;;;2.00;99.90;;;;;;5111857;28;20171;-75
2022/01/15 00:11:20;;;;;;;79.90;40.17;;;2.10;99.90;;;;;;5102886;28;20175;-76
2022/01/15 00:13:53;;;;;;;91.73;43.67;;;2.10;99.90;;;;;;5113207;28;20194;-76
2022/01/15 00:16:44;;;;;;;95.13;42.33;;;2.20;99.90;;;;;;5113428;28;20732;-75
2022/01/15 00:19:12;;;;;;;78.40;39.07;;;2.20;99.90;;;;;;5113254;28;20178;-76
2022/01/15 00:21:39;;;;;;;69.63;34.47;;;2.30;99.90;;;;;;5105312;28;20188;-76
2022/01/15 00:24:06;;;;;;;60.37;29.80;;;2.30;99.90;;;;;;5102533;28;20256;-78
2022/01/15 00:26:32;;;;;;;67.80;32.30;;;2.20;99.90;;;;;;5092366;28;20242;-76
2022/01/15 00:28:58;;;;;;;81.67;35.40;;;2.20;99.90;;;;;;5092926;28;20172;-76
2022/01/15 00:31:25;;;;;;;79.33;36.00;;;2.20;99.90;;;;;;5100248;28;20231;-76
2022/01/15 00:33:51;;;;;;;64.27;31.13;;;2.20;99.90;;;;;;5111267;28;20164;-75
2022/01/15 00:36:17;;;;;;;66.13;32.87;;;2.20;99.90;;;;;;5092727;28;20172;-75
2022/01/15 00:38:43;;;;;;;68.63;34.97;;;2.20;99.90;;;;;;5091387;28;20538;-75
2022/01/15 00:41:09;;;;;;;74.10;34.77;;;2.20;99.90;;;;;;5103030;28;20179;-75
2022/01/15 00:43:35;;;;;;;74.37;35.27;;;2.30;99.90;;;;;;5099638;28;20215;-75
2022/01/15 00:46:01;;;;;;;76.73;36.47;;;2.40;99.90;;;;;;5092433;28;20227;-75
2022/01/15 00:48:27;;;;;;;82.90;39.40;;;2.40;99.90;;;;;;5092217;28;20207;-76
2022/01/15 00:50:55;;;;;;;82.33;37.87;;;2.60;99.90;;;;;;5108838;28;20192;-76
2022/01/15 00:53:20;;;;;;;75.90;37.57;;;2.30;99.90;;;;;;5092408;28;20237;-76
2022/01/15 00:55:46;;;;;;;85.80;39.30;;;2.30;99.90;;;;;;5093267;28;20642;-75
2022/01/15 00:58:13;;;;;;;82.00;37.50;;;2.30;99.90;;;;;;5111145;28;20179;-76
2022/01/15 01:00:43;;;;;;;78.37;38.23;;;2.30;99.90;;;;;;5112559;28;20171;-75
2022/01/15 01:03:09;;;;;;;74.63;38.67;;;2.30;99.90;;;;;;5099519;28;20183;-76
2022/01/15 01:05:38;;;;;;;66.73;32.83;;;2.30;99.90;;;;;;5111412;28;20683;-75
2022/01/15 01:08:04;;;;;;;67.70;30.50;;;2.30;99.90;;;;;;5092174;28;20259;-75
2022/01/15 01:10:54;;;;;;;51.83;27.30;;;2.20;99.90;;;;;;5094481;28;20183;-75
2022/01/15 01:23:48;;;;;;;48.63;25.47;;;1.80;99.90;;;;;;5095770;28;20168;-79
2022/01/15 01:26:29;;;;;;;56.27;27.43;;;1.80;99.90;;;;;;5092334;28;20264;-86
2022/01/15 01:29:07;;;;;;;50.10;25.87;;;1.80;99.90;;;;;;5090514;28;20182;-71
2022/01/15 01:31:58;;;;;;;50.87;26.47;;;1.80;99.90;;;;;;5092992;28;20186;-80
2022/01/15 01:34:19;;;;;;;52.63;26.10;;;1.70;99.90;;;;;;5106514;28;20187;-81
2022/01/15 01:37:08;;;;;;;60.23;29.00;;;1.80;99.90;;;;;;5098843;28;20167;-82
2022/01/15 01:39:44;;;;;;;59.83;29.93;;;1.80;99.90;;;;;;5113210;27;20650;-82
2022/01/15 01:44:40;;;;;;;53.77;29.53;;;1.80;99.90;;;;;;5111810;28;20257;-80
2022/01/15 01:47:16;;;;;;;61.57;30.20;;;1.80;99.90;;;;;;5111519;28;20218;-80
2022/01/15 01:49:42;;;;;;;61.40;29.87;;;1.80;99.90;;;;;;5111737;28;20198;-78
2022/01/15 01:52:10;;;;;;;53.60;27.17;;;1.80;99.90;;;;;;5108688;28;20653;-81
2022/01/15 01:54:35;;;;;;;59.20;29.63;;;1.80;99.90;;;;;;5091595;28;20263;-83
2022/01/15 01:57:01;;;;;;;59.43;29.60;;;1.90;99.90;;;;;;5102476;28;20255;-84
2022/01/15 01:59:28;;;;;;;64.60;30.23;;;1.90;99.90;;;;;;5106477;28;20180;-83
2022/01/15 02:01:54;;;;;;;61.50;28.70;;;1.90;99.90;;;;;;5098365;28;20163;-84
2022/01/15 02:04:20;;;;;;;55.97;27.67;;;1.90;99.90;;;;;;5111468;28;20202;-80
2022/01/15 02:06:46;;;;;;;59.73;30.00;;;1.80;99.90;;;;;;5095855;28;20312;-80
2022/01/15 02:09:12;;;;;;;59.57;29.70;;;1.80;99.90;;;;;;5109535;28;20575;-81
2022/01/15 02:11:39;;;;;;;57.93;28.80;;;1.90;99.90;;;;;;5111637;28;20209;-81
2022/01/15 02:14:05;;;;;;;61.53;29.20;;;1.90;99.90;;;;;;5111283;28;20168;-81
2022/01/15 02:16:31;;;;;;;50.50;27.10;;;2.00;99.90;;;;;;5105828;28;20179;-80
2022/01/15 02:18:57;;;;;;;49.10;24.30;;;2.00;99.90;;;;;;5102998;28;20908;-80
2022/01/15 02:24:07;;;;;;;42.67;22.10;;;2.10;99.90;;;;;;5107157;28;20177;-79
2022/01/15 02:26:37;;;;;;;42.07;21.70;;;2.10;99.90;;;;;;5111456;28;20215;-79
2022/01/15 02:29:04;;;;;;;39.70;20.27;;;2.10;99.90;;;;;;5102468;28;20176;-78
2022/01/15 02:31:31;;;;;;;37.00;20.23;;;2.10;99.90;;;;;;5091178;28;20552;-79
2022/01/15 02:33:59;;;;;;;45.90;21.20;;;2.00;99.90;;;;;;5107483;28;20171;-79
2022/01/15 02:36:30;;;;;;;41.37;21.17;;;2.00;99.90;;;;;;5110032;28;20235;-79
2022/01/15 02:38:57;;;;;;;39.07;20.53;;;1.90;99.90;;;;;;5104273;28;20163;-82
2022/01/15 02:41:34;;;;;;;39.17;20.27;;;1.80;99.90;;;;;;5111445;28;20645;-80
2022/01/15 02:44:03;;;;;;;41.50;20.77;;;1.80;99.90;;;;;;5109443;28;20267;-80
2022/01/15 02:48:58;;;;;;;43.07;21.53;;;1.80;99.90;;;;;;5092929;28;20532;-83
2022/01/15 02:51:26;;;;;;;41.57;20.93;;;1.80;99.90;;;;;;5095636;28;20278;-84
2022/01/15 02:53:55;;;;;;;47.63;21.53;;;1.90;99.90;;;;;;5093806;28;20168;-83
2022/01/15 02:56:25;;;;;;;44.37;22.33;;;1.90;99.90;;;;;;5104297;28;20171;-83
2022/01/15 02:58:51;;;;;;;45.40;21.77;;;1.80;99.90;;;;;;5116663;28;20172;-80
2022/01/15 03:01:17;;;;;;;40.93;21.97;;;1.90;99.90;;;;;;5104464;28;20179;-79
2022/01/15 03:03:43;;;;;;;44.90;22.67;;;1.80;99.90;;;;;;5111066;28;20629;-78
2022/01/15 03:06:14;;;;;;;48.13;21.83;;;2.00;99.90;;;;;;5115198;28;20697;-78
2022/01/15 03:08:41;;;;;;;44.97;22.30;;;2.00;99.90;;;;;;5111503;28;20176;-79
2022/01/15 03:11:07;;;;;;;47.47;22.63;;;2.10;99.90;;;;;;5094643;28;20193;-79
2022/01/15 03:13:35;;;;;;;45.17;23.10;;;2.10;99.90;;;;;;5099409;28;20581;-68
2022/01/15 03:16:01;;;;;;;46.93;22.57;;;2.00;99.90;;;;;;5113378;28;20167;-80
2022/01/15 03:18:27;;;;;;;40.63;21.27;;;2.00;99.90;;;;;;5105815;28;20233;-80
2022/01/15 03:20:53;;;;;;;44.73;20.87;;;2.00;99.90;;;;;;5097935;28;20186;-80
2022/01/15 03:23:19;;;;;;;40.43;20.03;;;1.90;99.90;;;;;;5104506;28;20261;-81
2022/01/15 03:25:45;;;;;;;42.73;22.53;;;2.00;99.90;;;;;;5094156;28;20183;-81
2022/01/15 03:28:10;;;;;;;40.20;22.03;;;2.10;99.90;;;;;;5094186;28;20623;-81
2022/01/15 03:30:37;;;;;;;45.60;24.43;;;2.10;99.90;;;;;;5094532;28;20200;-85
2022/01/15 03:33:04;;;;;;;52.53;26.30;;;2.20;99.90;;;;;;5094378;28;20172;-83
2022/01/15 03:35:30;;;;;;;54.40;26.60;;;2.20;99.90;;;;;;5101002;28;20263;-83
2022/01/15 03:37:55;;;;;;;53.37;26.27;;;2.20;99.90;;;;;;5112753;28;20645;-83
2022/01/15 03:40:21;;;;;;;46.90;23.27;;;2.30;99.90;;;;;;5114405;28;20258;-83
2022/01/15 03:42:47;;;;;;;45.90;23.47;;;2.40;99.90;;;;;;5114562;28;20565;-83
2022/01/15 03:45:14;;;;;;;45.67;23.83;;;2.40;99.90;;;;;;5112273;28;20226;-83
2022/01/15 03:47:42;;;;;;;47.83;23.83;;;2.50;99.90;;;;;;5113962;28;20260;-82
2022/01/15 03:50:09;;;;;;;42.73;23.23;;;2.50;99.90;;;;;;5111880;28;20179;-83
2022/01/15 03:52:35;;;;;;;44.80;22.80;;;2.60;99.90;;;;;;5093820;28;20266;-83
2022/01/15 03:55:02;;;;;;;42.97;22.03;;;2.60;99.90;;;;;;5093845;28;20186;-84
2022/01/15 03:57:27;;;;;;;43.83;23.00;;;2.60;99.90;;;;;;5100336;28;20536;-81
2022/01/15 03:59:53;;;;;;;46.27;23.20;;;2.60;99.90;;;;;;5113728;28;20175;-81
2022/01/15 04:02:19;;;;;;;43.57;23.17;;;2.60;99.90;;;;;;5112090;28;20167;-81
2022/01/15 04:04:45;;;;;;;43.77;23.33;;;2.60;99.90;;;;;;5113599;28;20171;-83
2022/01/15 04:07:11;;;;;;;45.30;22.97;;;2.60;99.90;;;;;;5105222;28;20207;-79
2022/01/15 04:09:36;;;;;;;44.10;23.03;;;2.60;99.90;;;;;;5099461;28;20194;-81
2022/01/15 04:12:02;;;;;;;44.30;23.00;;;2.70;99.90;;;;;;5115672;28;20179;-79
2022/01/15 04:14:28;;;;;;;47.60;23.97;;;2.70;99.90;;;;;;5113730;28;20633;-79
2022/01/15 04:16:54;;;;;;;53.63;26.90;;;2.70;99.90;;;;;;5113789;28;20254;-80
2022/01/15 04:19:21;;;;;;;53.43;25.77;;;2.70;99.90;;;;;;5113665;28;20194;-80
2022/01/15 04:21:47;;;;;;;48.00;24.97;;;2.70;99.90;;;;;;5109583;28;20284;-80
2022/01/15 04:24:12;;;;;;;48.97;24.23;;;2.70;99.90;;;;;;5093175;28;20658;-81
2022/01/15 04:26:38;;;;;;;49.97;25.63;;;2.80;99.90;;;;;;5100962;28;20211;-77
2022/01/15 04:29:06;;;;;;;50.07;26.00;;;2.80;99.90;;;;;;5113861;28;20250;-79
2022/01/15 04:31:46;;;;;;;52.57;25.67;;;2.80;99.90;;;;;;5112511;28;20637;-78
2022/01/15 04:34:14;;;;;;;48.40;25.47;;;2.80;99.90;;;;;;5104950;28;20183;-80
2022/01/15 04:36:40;;;;;;;55.67;27.70;;;2.90;99.90;;;;;;5092007;28;20168;-79
2022/01/15 04:39:09;;;;;;;56.57;26.93;;;2.90;99.90;;;;;;5095298;28;20652;-80
2022/01/15 04:41:35;;;;;;;51.03;27.10;;;2.90;99.90;;;;;;5094141;28;20172;-79
2022/01/15 04:44:04;;;;;;;51.20;27.70;;;2.90;99.90;;;;;;5094080;28;20230;-79
2022/01/15 04:46:30;;;;;;;49.87;26.13;;;2.80;99.90;;;;;;5091568;28;20199;-80
2022/01/15 04:48:55;;;;;;;54.77;27.50;;;2.80;99.90;;;;;;5092683;28;20274;-79
2022/01/15 04:51:21;;;;;;;58.03;28.60;;;2.70;99.90;;;;;;5092448;28;20198;-78
2022/01/15 04:53:47;;;;;;;51.97;27.47;;;2.70;99.90;;;;;;5095898;28;20280;-79
2022/01/15 04:56:13;;;;;;;54.80;26.60;;;2.70;99.90;;;;;;5103496;28;20164;-79
2022/01/15 04:58:38;;;;;;;59.37;27.50;;;2.70;99.90;;;;;;5112975;28;20175;-84
2022/01/15 05:01:04;;;;;;;50.83;26.70;;;2.70;99.90;;;;;;5098781;28;20634;-87
2022/01/15 05:03:30;;;;;;;51.90;27.13;;;2.70;99.90;;;;;;5094004;28;20178;-87
2022/01/15 05:05:56;;;;;;;50.50;27.47;;;2.70;99.90;;;;;;5094218;28;20199;-85
2022/01/15 05:08:21;;;;;;;51.13;27.00;;;2.70;99.90;;;;;;5104219;28;20171;-87
2022/01/15 05:10:48;;;;;;;49.60;26.87;;;2.60;99.90;;;;;;5103573;28;20180;-89
2022/01/15 05:13:14;;;;;;;58.67;27.70;;;2.60;99.90;;;;;;5103192;28;20164;-85
2022/01/15 05:15:43;;;;;;;51.90;25.87;;;2.60;99.90;;;;;;5097076;28;20243;-84
2022/01/15 05:18:09;;;;;;;50.50;27.00;;;2.50;99.90;;;;;;5099507;28;20171;-84
2022/01/15 05:20:36;;;;;;;53.37;27.33;;;2.50;99.90;;;;;;5094231;28;20171;-80
2022/01/15 05:23:02;;;;;;;58.20;28.03;;;2.50;99.90;;;;;;5095886;28;20171;-66
2022/01/15 05:25:28;;;;;;;58.97;28.60;;;2.40;99.90;;;;;;5091976;28;20599;-66
2022/01/15 05:27:54;;;;;;;51.90;28.60;;;2.40;99.90;;;;;;5091769;28;20211;-77
2022/01/15 05:30:20;;;;;;;51.70;26.47;;;2.30;99.90;;;;;;5100094;28;20175;-77
2022/01/15 05:32:45;;;;;;;52.80;27.53;;;2.30;99.90;;;;;;5112184;27;20190;-76
2022/01/15 05:35:11;;;;;;;55.47;26.33;;;2.30;99.90;;;;;;5093495;28;20532;-76
2022/01/15 05:37:38;;;;;;;46.17;25.43;;;2.30;99.90;;;;;;5108720;28;20321;-76
2022/01/15 05:40:05;;;;;;;47.30;24.13;;;2.20;99.90;;;;;;5101076;28;20686;-77
2022/01/15 05:42:30;;;;;;;51.53;23.30;;;2.20;99.90;;;;;;5095242;28;20233;-76
2022/01/15 05:44:56;;;;;;;46.70;23.23;;;2.20;99.90;;;;;;5091577;28;20219;-77
2022/01/15 05:47:22;;;;;;;47.43;23.70;;;2.20;99.90;;;;;;5091615;28;20233;-76
2022/01/15 05:49:49;;;;;;;44.03;22.83;;;2.20;99.90;;;;;;5090490;28;20172;-76
2022/01/15 05:52:15;;;;;;;41.47;21.30;;;2.20;99.90;;;;;;5093423;28;20168;-76
2022/01/15 05:54:41;;;;;;;45.47;22.17;;;2.10;99.90;;;;;;5111944;28;20624;-76
2022/01/15 05:57:07;;;;;;;42.73;22.37;;;2.10;99.90;;;;;;5111852;28;20703;-76
2022/01/15 05:59:33;;;;;;;41.47;22.53;;;2.10;99.90;;;;;;5102943;28;20838;-80
2022/01/15 06:01:59;;;;;;;50.37;22.57;;;2.10;99.90;;;;;;5091492;28;20171;-80
2022/01/15 06:04:24;;;;;;;45.63;22.20;;;2.00;99.90;;;;;;5091258;28;20176;-77
2022/01/15 06:06:50;;;;;;;42.63;20.77;;;2.00;99.90;;;;;;5091045;28;20204;-77
2022/01/15 06:09:16;;;;;;;46.50;23.63;;;2.00;99.90;;;;;;5110137;28;20179;-76
2022/01/15 06:11:42;;;;;;;43.83;21.70;;;2.00;99.90;;;;;;5105898;28;20183;-76
2022/01/15 06:14:08;;;;;;;43.43;23.13;;;2.00;99.90;;;;;;5091269;28;20663;-76
2022/01/15 06:16:34;;;;;;;43.00;22.20;;;2.00;99.90;;;;;;5091346;28;20255;-80
2022/01/15 06:19:00;;;;;;;48.63;22.67;;;2.00;99.90;;;;;;5091073;28;20188;-80
2022/01/15 06:21:26;;;;;;;54.07;25.00;;;2.00;99.90;;;;;;5095425;28;20180;-80
2022/01/15 06:23:51;;;;;;;54.77;23.93;;;2.00;99.90;;;;;;5093910;28;20656;-80
2022/01/15 06:26:17;;;;;;;47.80;22.57;;;2.00;99.90;;;;;;5091223;28;20226;-79
2022/01/15 06:28:43;;;;;;;50.77;24.07;;;2.00;99.90;;;;;;5091280;28;20255;-81
2022/01/15 06:31:09;;;;;;;45.37;22.40;;;2.00;99.90;;;;;;5091140;28;20321;-81
2022/01/15 06:33:34;;;;;;;43.27;22.50;;;2.10;99.90;;;;;;5103429;28;20221;-81
2022/01/15 06:36:00;;;;;;;44.73;23.60;;;2.10;99.90;;;;;;5091001;28;20168;-81
2022/01/15 06:38:26;;;;;;;46.57;23.13;;;2.20;99.90;;;;;;5105813;28;20269;-65
2022/01/15 06:40:52;;;;;;;45.10;23.20;;;2.20;99.90;;;;;;5109308;28;20179;-76
2022/01/15 06:43:18;;;;;;;39.27;21.70;;;2.30;99.90;;;;;;5105523;28;20172;-81
2022/01/15 06:45:44;;;;;;;41.13;20.90;;;2.40;99.90;;;;;;5091004;28;20175;-82
2022/01/15 06:48:09;;;;;;;45.27;22.63;;;2.40;99.90;;;;;;5090839;28;20199;-82
2022/01/15 06:50:37;;;;;;;46.20;22.47;;;2.30;99.90;;;;;;5089868;28;20565;-81
2022/01/15 06:53:03;;;;;;;34.97;20.43;;;2.30;99.90;;;;;;5091065;28;20233;-81
2022/01/15 06:55:29;;;;;;;38.80;21.13;;;2.10;99.90;;;;;;5091046;28;20191;-81
2022/01/15 06:57:56;;;;;;;38.47;20.67;;;2.10;99.90;;;;;;5090833;28;20631;-82
2022/01/15 07:00:24;;;;;;;41.23;21.30;;;2.00;99.90;;;;;;5092351;28;20179;-82
2022/01/15 07:02:50;;;;;;;46.17;22.20;;;1.90;99.90;;;;;;5098278;28;20685;-82
2022/01/15 07:05:15;;;;;;;37.20;20.83;;;1.90;99.90;;;;;;5092326;28;20180;-82
2022/01/15 07:07:45;;;;;;;43.10;22.20;;;1.90;99.90;;;;;;5090574;28;20294;-84
2022/01/15 07:10:11;;;;;;;37.43;20.67;;;1.90;99.90;;;;;;5094443;28;20175;-83
2022/01/15 07:12:37;;;;;;;43.93;22.37;;;1.90;99.90;;;;;;5102315;28;20190;-82
2022/01/15 07:15:04;;;;;;;47.73;23.07;;;2.00;99.90;;;;;;5091102;28;20172;-85
2022/01/15 07:17:31;;;;;;;45.97;21.97;;;2.10;99.90;;;;;;5093078;28;20199;-85
2022/01/15 07:19:57;;;;;;;44.20;20.47;;;2.10;99.90;;;;;;5109280;28;20171;-85
2022/01/15 07:22:23;;;;;;;40.97;21.40;;;2.10;99.90;;;;;;5111241;28;20528;-84
2022/01/15 07:24:48;;;;;;;45.10;21.27;;;2.10;99.90;;;;;;5096384;28;20626;-85
2022/01/15 07:27:14;;;;;;;42.90;22.00;;;2.10;99.90;;;;;;5090681;28;20283;-84
2022/01/15 07:29:40;;;;;;;41.83;21.43;;;2.10;99.90;;;;;;5090832;28;20176;-84
2022/01/15 07:32:06;;;;;;;42.13;21.57;;;2.10;99.90;;;;;;5097992;28;20248;-84
2022/01/15 07:34:32;;;;;;;47.97;22.20;;;2.10;99.90;;;;;;5095869;28;20176;-85
2022/01/15 07:36:59;;;;;;;38.30;21.00;;;2.10;99.90;;;;;;5097910;28;20172;-85
2022/01/15 07:39:26;;;;;;;39.47;21.03;;;2.20;99.90;;;;;;5111012;28;20638;-85
2022/01/15 07:41:53;;;;;;;42.07;21.43;;;2.20;99.90;;;;;;5114678;28;20838;-85
2022/01/15 07:44:18;;;;;;;39.60;20.63;;;2.20;99.90;;;;;;5112289;28;20585;-81
2022/01/15 07:46:44;;;;;;;42.87;20.27;;;2.20;99.90;;;;;;5113994;28;20219;-81
2022/01/15 07:49:10;;;;;;;42.80;20.80;;;2.20;99.90;;;;;;5101016;28;20219;-80
2022/01/15 07:51:36;;;;;;;35.60;20.67;;;2.20;99.90;;;;;;5093820;28;20164;-81
2022/01/15 07:54:03;;;;;;;40.30;21.77;;;2.20;99.90;;;;;;5094754;28;20164;-81
2022/01/15 07:56:28;;;;;;;40.03;21.97;;;2.20;99.90;;;;;;5093490;28;20245;-81
2022/01/15 07:58:54;;;;;;;38.53;21.10;;;2.20;99.90;;;;;;5093777;28;20630;-81
2022/01/15 08:01:20;;;;;;;43.90;22.87;;;2.20;99.90;;;;;;5095720;28;20183;-78
2022/01/15 08:03:48;;;;;;;41.43;22.00;;;2.30;99.90;;;;;;5093618;28;20172;-78
2022/01/15 08:06:14;;;;;;;41.17;21.27;;;2.30;99.90;;;;;;5092083;28;20224;-78
2022/01/15 08:08:40;;;;;;;39.77;21.73;;;2.30;99.90;;;;;;5097615;28;20179;-74
2022/01/15 08:11:06;;;;;;;38.40;21.87;;;2.40;99.90;;;;;;5112146;28;20175;-74
2022/01/15 08:13:32;;;;;;;37.87;20.50;;;2.30;99.90;;;;;;5104322;28;20179;-74
2022/01/15 08:16:01;;;;;;;42.57;22.00;;;2.30;99.90;;;;;;5093360;28;20179;-74
2022/01/15 08:18:28;;;;;;;46.67;21.80;;;2.30;99.90;;;;;;5093849;28;20180;-72
2022/01/15 08:20:54;;;;;;;44.30;21.57;;;2.40;99.90;;;;;;5092974;28;20168;-73
2022/01/15 08:23:20;;;;;;;44.17;23.30;;;2.40;99.90;;;;;;5091667;28;20180;-73
2022/01/15 08:25:46;;;;;;;42.20;22.27;;;2.40;99.90;;;;;;5100769;28;20182;-73
2022/01/15 08:28:12;;;;;;;53.87;24.37;;;2.40;99.90;;;;;;5112127;28;20714;-74
2022/01/15 08:30:38;;;;;;;45.73;22.80;;;2.50;99.90;;;;;;5096367;28;20206;-79
2022/01/15 08:33:04;;;;;;;46.93;21.43;;;2.50;99.90;;;;;;5093436;28;20203;-82
2022/01/15 08:35:30;;;;;;;42.70;21.40;;;2.50;99.90;;;;;;5098468;28;20668;-82
2022/01/15 08:37:57;;;;;;;41.70;22.03;;;2.60;99.90;;;;;;5103694;28;20240;-75
2022/01/15 08:40:24;;;;;;;43.27;21.93;;;2.60;99.90;;;;;;5113100;28;20177;-73
2022/01/15 08:42:50;;;;;;;44.27;22.47;;;2.70;99.90;;;;;;5094536;28;20661;-75
2022/01/15 08:45:16;;;;;;;47.47;22.93;;;2.90;99.90;;;;;;5092397;28;20310;-74
2022/01/15 08:47:42;;;;;;;42.37;22.67;;;3.00;99.90;;;;;;5091972;28;20215;-73
2022/01/15 08:50:10;;;;;;;40.03;21.33;;;3.10;99.90;;;;;;5092565;28;20289;-72
2022/01/15 08:52:36;;;;;;;37.83;20.07;;;3.60;99.90;;;;;;5092419;28;20220;-74
2022/01/15 08:55:07;;;;;;;43.80;20.23;;;4.20;99.90;;;;;;5092548;28;20250;-75
2022/01/15 08:57:34;;;;;;;40.27;19.80;;;4.10;99.90;;;;;;5099698;28;20190;-74
2022/01/15 09:00:00;;;;;;;45.33;19.57;;;3.90;99.90;;;;;;5111346;28;20167;-74
2022/01/15 09:02:26;;;;;;;40.23;20.47;;;3.80;99.90;;;;;;5106182;28;20182;-73
2022/01/15 09:04:53;;;;;;;44.17;19.83;;;3.80;99.90;;;;;;5092532;28;20626;-74
2022/01/15 09:07:20;;;;;;;42.10;18.87;;;3.70;99.90;;;;;;5108164;28;20673;-72
2022/01/15 09:09:46;;;;;;;40.40;19.67;;;3.70;99.90;;;;;;5111191;28;20170;-71
2022/01/15 09:12:12;;;;;;;33.93;18.60;;;3.70;99.90;;;;;;5112299;28;20183;-72
2022/01/15 09:14:41;;;;;;;36.77;19.23;;;3.70;99.90;;;;;;5112248;28;20240;-73
2022/01/15 09:17:07;;;;;;;37.73;18.23;;;3.70;99.90;;;;;;5112573;28;20660;-71
2022/01/15 09:19:33;;;;;;;34.53;18.47;;;3.80;99.90;;;;;;5104346;28;20178;-71
2022/01/15 09:22:06;;;;;;;37.07;19.10;;;3.70;99.90;;;;;;5109866;28;20183;-71
2022/01/15 09:24:32;;;;;;;36.50;19.33;;;3.70;99.90;;;;;;5112206;28;20560;-71
2022/01/15 09:32:08;;;;;;;32.73;17.83;;;3.80;99.90;;;;;;5109028;28;20186;-67
2022/01/15 09:34:36;;;;;;;37.70;18.57;;;3.90;99.90;;;;;;5112161;28;20167;-71
2022/01/15 09:37:03;;;;;;;37.77;18.70;;;3.90;99.90;;;;;;5112010;28;20366;-67
2022/01/15 09:39:29;;;;;;;37.23;19.40;;;4.00;99.90;;;;;;5111764;28;20171;-66
2022/01/15 09:41:55;;;;;;;41.23;20.23;;;4.10;99.90;;;;;;5110669;28;20248;-67
2022/01/15 09:44:23;;;;;;;41.00;19.77;;;4.10;99.90;;;;;;5111757;28;20207;-71
2022/01/15 09:46:50;;;;;;;41.70;19.80;;;4.00;99.90;;;;;;5111588;28;20206;-63
2022/01/15 09:49:18;;;;;;;40.77;20.47;;;4.10;99.90;;;;;;5111310;28;20174;-76
2022/01/15 09:51:46;;;;;;;40.63;20.70;;;4.10;99.90;;;;;;5109871;28;20175;-75
2022/01/15 09:54:14;;;;;;;39.23;20.27;;;4.10;99.90;;;;;;5110512;28;20171;-73
2022/01/15 09:56:40;;;;;;;37.90;18.83;;;4.20;99.90;;;;;;5111073;28;20174;-83
2022/01/15 09:59:06;;;;;;;36.50;18.80;;;4.10;99.90;;;;;;5111786;28;20171;-73
2022/01/15 10:01:32;;;;;;;33.87;19.27;;;4.20;99.90;;;;;;5110544;28;20217;-64
2022/01/15 10:03:59;;;;;;;40.47;19.83;;;4.20;99.90;;;;;;5111238;28;20183;-64
2022/01/15 10:06:25;;;;;;;38.60;19.63;;;4.30;99.90;;;;;;5106928;28;20210;-64
2022/01/15 10:09:08;;;;;;;34.77;18.53;;;5.10;99.90;;;;;;5091044;28;20642;-71
2022/01/15 10:11:47;;;;;;;33.30;18.63;;;4.30;99.90;;;;;;5091218;28;20167;-71
2022/01/15 10:14:27;;;;;;;37.53;19.07;;;4.40;99.90;;;;;;5091201;28;20175;-70
2022/01/15 10:16:55;;;;;;;38.07;18.03;;;4.50;99.90;;;;;;5094359;28;20167;-70
2022/01/15 10:19:38;;;;;;;42.20;18.10;;;4.60;99.90;;;;;;5102340;28;20258;-69
2022/01/15 10:22:22;;;;;;;31.27;17.17;;;4.50;99.90;;;;;;5108829;28;20228;-68
2022/01/15 10:24:55;;;;;;;39.73;18.57;;;4.60;99.90;;;;;;5090888;28;20638;-70
2022/01/15 10:27:30;;;;;;;37.23;18.07;;;4.60;99.90;;;;;;5091063;28;20203;-71
2022/01/15 10:30:26;;;;;;;33.50;18.43;;;4.60;99.90;;;;;;5090979;28;20175;-69
2022/01/15 10:33:10;;;;;;;35.40;18.27;;;4.60;99.90;;;;;;5085380;28;20180;-70
2022/01/15 10:35:42;;;;;;;35.83;19.30;;;4.80;99.90;;;;;;5090818;28;20287;-70
2022/01/15 10:38:10;;;;;;;40.77;19.70;;;4.90;99.90;;;;;;5090646;28;20186;-69
2022/01/15 10:40:40;;;;;;;33.97;18.77;;;4.90;99.90;;;;;;5090898;28;20183;-69
2022/01/15 10:43:07;;;;;;;41.83;18.70;;;4.90;99.90;;;;;;5090967;28;20172;-70
2022/01/15 10:45:35;;;;;;;32.27;17.87;;;5.00;99.90;;;;;;5090457;28;20219;-69
2022/01/15 10:48:07;;;;;;;34.17;18.27;;;5.20;99.90;;;;;;5090575;28;20243;-70
2022/01/15 10:50:37;;;;;;;30.53;18.37;;;5.20;99.90;;;;;;5089413;28;20183;-71
2022/01/15 10:53:11;;;;;;;32.73;19.10;;;5.10;99.90;;;;;;5090730;28;20294;-71
2022/01/15 10:55:38;;;;;;;36.57;17.90;;;5.20;99.90;;;;;;5090650;28;20174;-71
2022/01/15 10:58:06;;;;;;;37.57;19.27;;;5.30;99.90;;;;;;5090639;28;20172;-71
2022/01/15 11:00:45;;;;;;;37.03;19.77;;;5.30;99.90;;;;;;5090574;28;20180;-71
2022/01/15 11:03:14;;;;;;;38.33;20.20;;;5.20;99.90;;;;;;5090646;28;20171;-72
2022/01/15 11:05:48;;;;;;;48.03;20.20;;;5.30;99.90;;;;;;5090815;28;20214;-72
2022/01/15 11:08:43;;;;;;;44.33;20.90;;;5.40;99.90;;;;;;5090820;28;20660;-72
2022/01/15 11:11:13;;;;;;;38.47;19.13;;;5.50;99.90;;;;;;5088457;28;20192;-72
2022/01/15 11:13:42;;;;;;;36.73;20.37;;;5.70;99.90;;;;;;5115105;28;20177;-72
2022/01/15 11:16:17;;;;;;;42.13;19.83;;;5.70;99.90;;;;;;5114799;28;20166;-72
2022/01/15 11:18:44;;;;;;;49.83;22.33;;;5.70;99.90;;;;;;5114948;28;20158;-72
2022/01/15 11:21:15;;;;;;;37.00;21.10;;;5.70;99.90;;;;;;5114808;28;20648;-71
2022/01/15 11:23:43;;;;;;;43.37;21.73;;;5.70;99.90;;;;;;5114703;28;20216;-71
2022/01/15 11:26:11;;;;;;;46.37;22.50;;;5.80;99.90;;;;;;5106872;27;20635;-71
2022/01/15 11:28:37;;;;;;;41.23;21.57;;;5.80;99.90;;;;;;5094222;28;20167;-71
2022/01/15 11:31:09;;;;;;;41.80;22.07;;;5.90;99.90;;;;;;5094077;28;20167;-72
2022/01/15 11:33:39;;;;;;;39.47;22.93;;;6.10;99.90;;;;;;5094187;28;20164;-71
2022/01/15 11:36:07;;;;;;;38.27;21.93;;;6.10;99.90;;;;;;5094176;28;20169;-70
2022/01/15 11:38:45;;;;;;;46.30;23.03;;;6.10;99.90;;;;;;5094259;28;20168;-71
2022/01/15 11:41:26;;;;;;;50.97;25.40;;;6.00;99.90;;;;;;5094075;28;20179;-71
2022/01/15 11:44:02;;;;;;;40.83;22.43;;;6.20;99.90;;;;;;5093641;28;20380;-70
2022/01/15 11:46:31;;;;;;;41.90;22.77;;;6.30;99.90;;;;;;5095026;28;20214;-71
2022/01/15 11:49:34;;;;;;;39.83;23.00;;;6.50;99.90;;;;;;5114277;28;20167;-71
2022/01/15 11:52:08;;;;;;;49.73;23.83;;;6.70;99.90;;;;;;5114176;28;20553;-72
2022/01/15 11:54:35;;;;;;;43.00;22.37;;;6.90;99.90;;;;;;5113872;28;20219;-71
2022/01/15 11:57:03;;;;;;;40.50;22.30;;;6.90;99.90;;;;;;5114214;28;20166;-71
2022/01/15 11:59:31;;;;;;;54.77;23.17;;;7.20;99.90;;;;;;5114309;28;20171;-73
2022/01/15 12:02:02;;;;;;;41.63;22.00;;;7.80;99.90;;;;;;5114235;28;20172;-72
2022/01/15 12:04:41;;;;;;;37.37;21.20;;;8.70;99.90;;;;;;5114199;28;20657;-72
2022/01/15 12:07:06;;;;;;;36.00;21.23;;;8.90;99.90;;;;;;5113767;28;20222;-73
2022/01/15 12:09:40;;;;;;;34.53;19.47;;;8.90;99.90;;;;;;5113767;28;20297;-71
2022/01/15 12:12:18;;;;;;;35.87;19.90;;;9.10;99.90;;;;;;5102233;27;20206;-72
2022/01/15 12:14:51;;;;;;;40.80;21.83;;;9.40;99.90;;;;;;5093233;28;20163;-71
2022/01/15 12:17:31;;;;;;;43.00;20.93;;;9.40;99.90;;;;;;5092664;28;20179;-72
2022/01/15 12:20:04;;;;;;;33.23;20.67;;;9.50;99.90;;;;;;5093135;28;20576;-70
2022/01/15 12:22:51;;;;;;;32.83;18.93;;;9.60;99.90;;;;;;5093106;28;20164;-71
2022/01/15 12:25:16;;;;;;;33.80;19.33;;;9.70;99.90;;;;;;5093016;28;20274;-71
2022/01/15 12:27:43;;;;;;;30.40;19.20;;;9.80;99.90;;;;;;5092909;28;20286;-69
2022/01/15 12:30:18;;;;;;;30.43;17.63;;;10.00;99.90;;;;;;5092806;28;20204;-69
2022/01/15 12:32:47;;;;;;;35.03;20.20;;;10.10;99.90;;;;;;5092572;28;20493;-75
2022/01/15 12:35:22;;;;;;;29.02;17.80;;;10.80;99.90;;;;;;5095050;28;20232;-69
2022/01/15 12:37:56;;;;;;;28.48;17.90;;;13.20;99.90;;;;;;5095922;28;20175;-72
2022/01/15 12:40:31;;;;;;;28.90;18.70;;;14.10;99.90;;;;;;5105238;28;20199;-70
2022/01/15 12:43:05;;;;;;;26.25;15.70;;;16.20;99.90;;;;;;5105633;28;20164;-71
2022/01/15 12:45:33;;;;;;;23.73;15.65;;;16.90;99.90;;;;;;5092491;28;20219;-72
2022/01/15 12:47:59;;;;;;;21.25;15.02;;;18.00;99.90;;;;;;5092995;28;20211;-71
2022/01/15 12:50:26;;;;;;;22.90;14.15;;;16.90;99.90;;;;;;5092408;28;20641;-71
2022/01/15 12:53:02;;;;;;;25.60;14.02;;;16.80;99.90;;;;;;5092312;28;20660;-71
2022/01/15 12:55:33;;;;;;;19.95;13.60;;;14.60;99.90;;;;;;5092422;28;20163;-71
2022/01/15 12:58:01;;;;;;;20.45;12.93;;;13.80;99.90;;;;;;5091096;28;20207;-71
2022/01/15 13:00:31;;;;;;;19.80;13.35;;;13.20;99.90;;;;;;5092506;28;20180;-71
2022/01/15 13:03:06;;;;;;;15.88;11.27;;;12.70;99.90;;;;;;5092379;28;20202;-70
2022/01/15 13:05:38;;;;;;;21.85;11.90;;;12.00;99.90;;;;;;5092238;28;20171;-71